Time;durP1;ratioP1;P1;durP2;ratioP2;P2;SDS_P1;SDS_P2;PMS_P1;PMS_P2;Temp;Humidity;BMP_temperature;BMP_pressure;BME280_temperature;BME280_humidity;BME280_pressure;Samples;Min_cycle;Max_cycle;Signal;HPM_P1;HPM_P2
2022/08/16 00:02:33;;;;;;;7.75;4.45;;;;;;;22.99;81.95;99138.91;6322832;28;20044;-73
2022/08/16 00:05:34;;;;;;;6.03;4.07;;;;;;;23.02;80.81;99129.72;6306187;28;20108;-73
2022/08/16 00:08:36;;;;;;;6.68;4.60;;;;;;;22.96;81.76;99141.13;6322723;28;20079;-73
2022/08/16 00:11:40;;;;;;;8.50;5.00;;;;;;;22.91;83.01;99139.88;6322904;28;20056;-73
2022/08/16 00:14:41;;;;;;;14.45;4.97;;;;;;;22.90;82.36;99134.78;6322700;28;20082;-73
2022/08/16 00:17:41;;;;;;;8.10;4.70;;;;;;;22.83;82.23;99140.03;6305869;28;20052;-73
2022/08/16 00:20:45;;;;;;;7.75;4.63;;;;;;;22.88;81.51;99144.78;6322635;28;20043;-72
2022/08/16 00:23:46;;;;;;;7.07;5.15;;;;;;;22.88;81.39;99139.47;6323650;28;20093;-72
2022/08/16 00:26:52;;;;;;;8.37;4.93;;;;;;;22.83;81.57;99134.72;6305702;28;20040;-72
2022/08/16 00:29:55;;;;;;;7.15;5.30;;;;;;;22.82;81.80;99143.72;6306216;28;20460;-73
2022/08/16 00:32:58;;;;;;;11.05;5.10;;;;;;;22.79;82.81;99152.06;6306129;28;20381;-73
2022/08/16 00:35:59;;;;;;;5.40;4.70;;;;;;;22.70;84.01;99163.88;6322319;28;20481;-73
2022/08/16 00:39:00;;;;;;;7.07;5.28;;;;;;;22.60;85.47;99166.88;6288507;28;20051;-72
2022/08/16 00:42:03;;;;;;;6.07;4.50;;;;;;;22.52;86.68;99162.50;6288634;28;20129;-73
2022/08/16 00:45:31;;;;;;;11.88;5.15;;;;;;;22.52;88.29;99159.03;6323467;28;20043;-72
2022/08/16 00:48:32;;;;;;;8.13;5.10;;;;;;;22.54;89.46;99162.34;6323041;28;20051;-73
2022/08/16 00:51:33;;;;;;;10.00;4.55;;;;;;;22.60;86.76;99152.78;6321912;28;20161;-73
2022/08/16 00:54:35;;;;;;;5.63;4.20;;;;;;;22.62;83.57;99158.72;6321954;28;20036;-73
2022/08/16 00:57:36;;;;;;;6.72;4.20;;;;;;;22.70;82.16;99150.59;6321641;28;20047;-72
2022/08/16 01:00:42;;;;;;;9.35;4.22;;;;;;;22.67;82.15;99143.84;6321189;28;20456;-72
2022/08/16 01:03:48;;;;;;;5.28;3.95;;;;;;;22.66;82.45;99152.00;6320562;28;20399;-72
2022/08/16 01:06:50;;;;;;;5.13;3.88;;;;;;;22.60;82.45;99152.78;6322462;28;20074;-72
2022/08/16 01:09:51;;;;;;;6.82;3.85;;;;;;;22.65;82.25;99148.53;6322433;28;20715;-73
2022/08/16 01:12:54;;;;;;;5.97;3.93;;;;;;;22.57;83.45;99148.66;6321604;28;20077;-73
2022/08/16 01:16:02;;;;;;;6.00;4.47;;;;;;;22.50;82.96;99142.47;6321524;28;20040;-73
2022/08/16 01:19:08;;;;;;;6.30;4.00;;;;;;;22.53;83.46;99147.41;6320772;28;20047;-73
2022/08/16 01:22:38;;;;;;;7.15;4.60;;;;;;;22.42;86.24;99135.44;6322390;28;20043;-73
2022/08/16 01:25:43;;;;;;;10.05;4.82;;;;;;;22.35;88.85;99136.44;6321223;28;20071;-73
2022/08/16 01:28:46;;;;;;;11.75;5.20;;;;;;;22.11;92.14;99128.66;6322276;28;20411;-73
2022/08/16 01:31:48;;;;;;;8.63;5.55;;;;;;;21.95;99.66;99134.22;6322240;28;20044;-73
2022/08/16 01:34:49;;;;;;;9.55;5.13;;;;;;;21.79;100.00;99143.25;6322128;28;20475;-73
2022/08/16 01:37:56;;;;;;;8.43;5.15;;;;;;;21.70;100.00;99149.66;6303760;28;20477;-73
2022/08/16 01:41:03;;;;;;;7.25;5.13;;;;;;;21.72;100.00;99164.41;6320767;28;20048;-73
2022/08/16 01:44:06;;;;;;;10.02;4.65;;;;;;;21.69;100.00;99171.94;6320643;28;20040;-72
2022/08/16 01:47:08;;;;;;;9.90;4.63;;;;;;;21.56;100.00;99171.75;6321915;28;20051;-74
2022/08/16 01:50:09;;;;;;;8.38;4.65;;;;;;;21.54;100.00;99166.66;6320735;28;20109;-74
2022/08/16 01:53:11;;;;;;;5.83;4.67;;;;;;;21.49;100.00;99169.03;6322031;28;20048;-74
2022/08/16 01:56:12;;;;;;;7.85;4.75;;;;;;;21.38;100.00;99164.19;6303645;28;20058;-72
2022/08/16 01:59:13;;;;;;;5.43;4.43;;;;;;;21.25;100.00;99172.75;6320494;28;20036;-72
2022/08/16 02:02:15;;;;;;;6.15;4.93;;;;;;;21.27;100.00;99173.41;6320412;28;20484;-72
2022/08/16 02:05:15;;;;;;;6.05;4.53;;;;;;;21.16;100.00;99158.78;6320381;28;20040;-72
2022/08/16 02:08:16;;;;;;;11.30;4.70;;;;;;;21.21;100.00;99164.38;6287017;28;20043;-72
2022/08/16 02:11:21;;;;;;;5.85;4.57;;;;;;;21.08;100.00;99157.03;6303187;28;20176;-72
2022/08/16 02:14:25;;;;;;;6.93;4.18;;;;;;;21.00;100.00;99156.31;6319339;28;20040;-74
2022/08/16 02:17:25;;;;;;;5.53;4.85;;;;;;;20.95;100.00;99162.19;6320229;28;20044;-72
2022/08/16 02:20:34;;;;;;;6.20;4.70;;;;;;;20.97;100.00;99152.22;6320099;28;20036;-73
2022/08/16 02:23:39;;;;;;;6.10;4.80;;;;;;;20.91;100.00;99143.16;6320022;28;20071;-72
2022/08/16 02:26:40;;;;;;;6.82;4.55;;;;;;;20.88;100.00;99137.41;6319973;28;20113;-73
2022/08/16 02:29:44;;;;;;;5.73;5.00;;;;;;;20.82;100.00;99141.59;6304215;28;20542;-73
2022/08/16 02:32:48;;;;;;;6.45;4.78;;;;;;;20.76;100.00;99144.97;6326432;28;20060;-72
2022/08/16 02:35:49;;;;;;;6.22;4.63;;;;;;;20.73;100.00;99140.88;6308664;28;20459;-72
2022/08/16 02:38:49;;;;;;;7.70;5.35;;;;;;;20.67;100.00;99131.00;6291474;28;20054;-73
2022/08/16 02:41:52;;;;;;;6.67;4.70;;;;;;;20.68;100.00;99129.97;6291231;28;20048;-72
2022/08/16 02:44:52;;;;;;;7.38;4.93;;;;;;;20.69;100.00;99125.50;6325017;28;20038;-73
2022/08/16 02:47:54;;;;;;;7.27;5.10;;;;;;;20.63;100.00;99131.50;6324967;28;20044;-72
2022/08/16 02:51:04;;;;;;;8.20;5.03;;;;;;;20.65;100.00;99138.31;6324750;28;20044;-72
2022/08/16 02:54:06;;;;;;;8.25;4.68;;;;;;;20.86;100.00;99140.22;6324790;28;20036;-72
2022/08/16 02:57:07;;;;;;;5.90;4.95;;;;;;;20.85;100.00;99135.91;6324494;28;20060;-72
2022/08/16 03:00:11;;;;;;;6.53;4.60;;;;;;;20.82;100.00;99133.66;6291277;28;20036;-72
2022/08/16 03:03:16;;;;;;;5.82;4.75;;;;;;;20.83;100.00;99134.47;6324578;28;20045;-73
2022/08/16 03:06:19;;;;;;;6.85;4.68;;;;;;;20.87;100.00;99141.88;6325737;28;20480;-72
2022/08/16 03:09:22;;;;;;;7.47;5.05;;;;;;;20.90;100.00;99144.16;6324306;28;20083;-72
2022/08/16 03:12:24;;;;;;;8.38;5.55;;;;;;;20.83;100.00;99139.78;6324511;28;20448;-74
2022/08/16 03:15:25;;;;;;;8.50;4.97;;;;;;;20.84;100.00;99138.78;6324658;28;20051;-74
2022/08/16 03:18:25;;;;;;;12.05;4.93;;;;;;;20.88;100.00;99138.22;6290908;28;20051;-74
2022/08/16 03:21:28;;;;;;;8.07;5.57;;;;;;;20.90;100.00;99140.69;6307387;28;20093;-74
2022/08/16 03:24:29;;;;;;;5.10;4.45;;;;;;;20.85;100.00;99135.09;6325620;28;20044;-74
2022/08/16 03:27:37;;;;;;;8.67;5.10;;;;;;;20.67;100.00;99148.69;6324153;28;20074;-74
2022/08/16 03:30:42;;;;;;;8.13;4.97;;;;;;;20.63;100.00;99150.06;6325293;28;20044;-75
2022/08/16 03:33:43;;;;;;;6.57;5.10;;;;;;;20.71;100.00;99148.19;6307582;28;20043;-74
2022/08/16 03:36:44;;;;;;;9.10;4.87;;;;;;;20.75;100.00;99150.47;6306659;28;20486;-74
2022/08/16 03:39:48;;;;;;;7.97;5.43;;;;;;;20.77;100.00;99146.59;6323445;28;20096;-74
2022/08/16 03:42:49;;;;;;;7.85;4.75;;;;;;;20.80;100.00;99148.91;6321779;28;20044;-74
2022/08/16 03:45:54;;;;;;;7.70;5.07;;;;;;;20.75;100.00;99145.16;6322346;28;20063;-74
2022/08/16 03:48:55;;;;;;;6.70;5.35;;;;;;;20.72;100.00;99135.75;6321383;28;20404;-74
2022/08/16 03:51:56;;;;;;;9.20;5.85;;;;;;;20.71;100.00;99137.56;6287906;28;20149;-74
2022/08/16 03:54:57;;;;;;;8.23;5.73;;;;;;;20.75;100.00;99127.41;6288228;28;20081;-75
2022/08/16 03:57:58;;;;;;;9.80;5.87;;;;;;;20.66;100.00;99134.63;6323077;28;20090;-75
2022/08/16 04:00:59;;;;;;;9.57;6.07;;;;;;;20.65;100.00;99133.00;6304582;28;20492;-74
2022/08/16 04:04:00;;;;;;;7.53;6.00;;;;;;;20.63;100.00;99135.00;6303795;28;20043;-74
2022/08/16 04:07:04;;;;;;;9.65;5.90;;;;;;;20.64;100.00;99134.00;6320657;28;20052;-75
2022/08/16 04:10:07;;;;;;;7.22;5.30;;;;;;;20.70;100.00;99140.41;6320399;28;20097;-74
2022/08/16 04:13:10;;;;;;;15.05;5.82;;;;;;;20.79;100.00;99149.91;6321862;28;20089;-74
2022/08/16 04:16:11;;;;;;;8.27;5.97;;;;;;;20.75;100.00;99148.63;6320490;28;20044;-74
2022/08/16 04:19:14;;;;;;;7.85;5.68;;;;;;;20.70;100.00;99156.31;6303847;28;20614;-72
2022/08/16 04:22:15;;;;;;;7.32;4.95;;;;;;;20.77;100.00;99154.56;6320315;28;20067;-72
2022/08/16 04:25:18;;;;;;;8.38;5.63;;;;;;;20.82;100.00;99170.75;6320394;28;20064;-72
2022/08/16 04:28:22;;;;;;;7.40;5.68;;;;;;;20.78;100.00;99172.13;6320294;28;20044;-73
2022/08/16 04:31:23;;;;;;;9.23;6.18;;;;;;;20.78;100.00;99181.91;6319537;28;20039;-72
2022/08/16 04:34:31;;;;;;;9.35;5.88;;;;;;;20.70;100.00;99183.63;6263072;28;20514;-72
2022/08/16 04:37:32;;;;;;;7.63;5.82;;;;;;;20.69;100.00;99199.69;6276196;28;1170377;-71
2022/08/16 04:40:33;;;;;;;8.52;5.80;;;;;;;20.75;100.00;99198.97;6287826;28;20290;-72
2022/08/16 04:43:37;;;;;;;10.87;5.60;;;;;;;20.77;100.00;99188.22;6321017;28;20043;-72
2022/08/16 04:46:40;;;;;;;9.18;5.57;;;;;;;20.78;100.00;99190.69;6321133;28;20043;-74
2022/08/16 04:49:42;;;;;;;7.15;5.05;;;;;;;20.65;100.00;99180.72;6322247;28;20063;-72
2022/08/16 04:52:46;;;;;;;;;;;;;;;20.58;100.00;99176.25;6320546;28;20126;-72
2022/08/16 04:55:47;;;;;;;8.10;5.47;;;;;;;20.67;100.00;99175.22;6321153;28;19923;-73
2022/08/16 04:58:48;;;;;;;7.18;5.20;;;;;;;20.71;100.00;99172.03;6321927;28;20040;-73
2022/08/16 05:01:55;;;;;;;6.10;5.07;;;;;;;20.70;100.00;99175.69;6303583;28;20392;-73
2022/08/16 05:04:56;;;;;;;12.63;5.53;;;;;;;20.64;100.00;99173.75;6320988;28;20035;-72
2022/08/16 05:07:59;;;;;;;10.80;5.30;;;;;;;20.61;100.00;99160.03;6320551;28;20067;-73
2022/08/16 05:11:06;;;;;;;8.90;6.30;;;;;;;20.46;100.00;99162.63;6321605;28;20098;-72
2022/08/16 05:14:06;;;;;;;7.70;6.47;;;;;;;20.47;100.00;99151.03;6321093;28;20040;-73
2022/08/16 05:17:08;;;;;;;11.18;6.45;;;;;;;20.47;100.00;99157.16;6297290;28;20044;-72
2022/08/16 05:20:16;;;;;;;6.63;5.55;;;;;;;20.64;100.00;99167.63;6320269;28;20123;-72
2022/08/16 05:23:18;;;;;;;10.75;5.93;;;;;;;20.80;100.00;99178.06;6321192;28;20831;-72
2022/08/16 05:26:19;;;;;;;13.38;6.45;;;;;;;20.97;100.00;99172.59;6278489;28;20136;-72
2022/08/16 05:29:20;;;;;;;7.60;5.78;;;;;;;21.04;100.00;99176.97;6294898;28;20037;-72
2022/08/16 05:32:20;;;;;;;10.73;6.43;;;;;;;21.09;100.00;99171.97;6261855;28;20051;-73
2022/08/16 05:35:21;;;;;;;8.20;5.27;;;;;;;21.04;100.00;99166.38;6278024;28;20052;-72
2022/08/16 05:38:28;;;;;;;8.07;5.13;;;;;;;21.04;100.00;99165.56;6278067;28;20057;-73
2022/08/16 05:41:29;;;;;;;6.78;4.38;;;;;;;20.97;100.00;99168.13;6295689;28;20106;-74
2022/08/16 05:44:30;;;;;;;7.53;5.47;;;;;;;21.03;100.00;99167.38;6294636;28;20068;-74
2022/08/16 05:47:32;;;;;;;8.13;5.50;;;;;;;21.11;100.00;99163.81;6286720;28;20086;-74
2022/08/16 05:50:35;;;;;;;;;;;;;;;21.14;100.00;99153.66;6303231;28;20104;-74
2022/08/16 05:53:36;;;;;;;8.98;5.57;;;;;;;21.21;100.00;99160.88;6320180;28;20007;-74
2022/08/16 05:56:38;;;;;;;8.40;4.80;;;;;;;21.25;100.00;99170.97;6318950;28;20048;-73
2022/08/16 05:59:39;;;;;;;9.90;4.93;;;;;;;21.25;100.00;99183.38;6318840;28;20503;-73
2022/08/16 06:02:41;;;;;;;10.43;5.10;;;;;;;21.30;100.00;99186.31;6319333;28;20047;-73
2022/08/16 06:05:42;;;;;;;9.25;5.35;;;;;;;21.29;100.00;99197.91;6319574;28;20075;-72
2022/08/16 06:08:43;;;;;;;12.93;5.10;;;;;;;21.32;100.00;99186.97;6319442;28;20036;-72
2022/08/16 06:11:45;;;;;;;11.23;5.27;;;;;;;21.38;100.00;99188.06;6284655;28;20046;-72
2022/08/16 06:14:46;;;;;;;12.55;5.82;;;;;;;21.37;100.00;99197.81;6295456;28;20752;-73
2022/08/16 06:17:47;;;;;;;11.35;6.20;;;;;;;21.40;100.00;99209.94;6300426;28;20041;-73
2022/08/16 06:20:51;;;;;;;7.53;5.47;;;;;;;21.41;100.00;99211.56;6318325;28;20063;-73
2022/08/16 06:23:52;;;;;;;14.82;5.50;;;;;;;21.34;100.00;99204.31;6299761;28;20044;-73
2022/08/16 06:26:53;;;;;;;9.68;5.40;;;;;;;21.16;100.00;99205.72;6317116;28;20052;-73
2022/08/16 06:29:54;;;;;;;7.47;5.70;;;;;;;20.95;100.00;99209.09;6301931;28;20113;-73
2022/08/16 06:32:55;;;;;;;9.48;6.05;;;;;;;20.99;100.00;99215.69;6317703;28;20040;-72
2022/08/16 06:35:56;;;;;;;8.43;5.83;;;;;;;21.02;100.00;99213.47;6269022;28;20279;-72
2022/08/16 06:38:58;;;;;;;9.37;5.87;;;;;;;21.12;100.00;99207.91;6284181;28;20503;-72
2022/08/16 06:41:59;;;;;;;;;;;;;;;21.24;100.00;99202.97;6320977;28;20128;-72
2022/08/16 06:45:00;;;;;;;10.75;5.88;;;;;;;21.42;100.00;99208.75;6319009;28;19924;-72
2022/08/16 06:48:03;;;;;;;10.95;5.57;;;;;;;21.63;100.00;99208.00;6318635;28;20040;-72
2022/08/16 06:51:05;;;;;;;8.75;5.97;;;;;;;21.87;100.00;99206.84;6318161;28;20051;-72
2022/08/16 06:54:07;;;;;;;6.15;5.13;;;;;;;21.88;100.00;99203.16;6318725;28;20055;-72
2022/08/16 06:57:09;;;;;;;6.35;5.20;;;;;;;22.00;100.00;99202.69;6319068;28;20044;-72
2022/08/16 07:00:12;;;;;;;8.43;6.20;;;;;;;22.12;100.00;99196.69;6285293;28;20106;-72
2022/08/16 07:03:15;;;;;;;7.47;5.70;;;;;;;22.23;100.00;99194.53;6318325;28;20194;-72
2022/08/16 07:06:18;;;;;;;7.35;5.50;;;;;;;22.38;100.00;99200.63;6318658;28;20503;-72
2022/08/16 07:09:20;;;;;;;9.30;5.60;;;;;;;22.48;99.77;99209.09;6317976;28;20044;-72
2022/08/16 07:12:21;;;;;;;7.72;5.32;;;;;;;22.65;98.15;99208.81;6284180;28;20052;-72
2022/08/16 07:15:22;;;;;;;7.32;5.70;;;;;;;22.83;98.36;99226.97;6301696;28;20055;-73
2022/08/16 07:18:25;;;;;;;7.93;5.00;;;;;;;22.96;94.60;99220.91;6323228;28;20044;-72
2022/08/16 07:21:26;;;;;;;8.55;5.05;;;;;;;23.07;93.12;99223.91;6306608;28;20131;-72
2022/08/16 07:24:29;;;;;;;7.40;4.60;;;;;;;23.17;93.48;99236.88;6306143;28;20044;-72
2022/08/16 07:27:34;;;;;;;12.52;4.90;;;;;;;23.56;92.63;99243.44;6322682;28;20510;-72
2022/08/16 07:30:38;;;;;;;8.43;4.90;;;;;;;23.88;87.50;99241.94;6306883;28;20040;-73
2022/08/16 07:33:40;;;;;;;7.95;5.38;;;;;;;24.20;86.87;99244.09;6306043;28;20040;-72
2022/08/16 07:36:41;;;;;;;7.43;5.10;;;;;;;24.33;86.28;99239.59;6322182;28;20514;-72
2022/08/16 07:39:42;;;;;;;12.23;4.90;;;;;;;24.45;83.68;99233.69;6322879;28;20089;-73
2022/08/16 07:42:43;;;;;;;9.73;5.00;;;;;;;24.67;86.85;99235.16;6323111;28;20036;-72
2022/08/16 07:45:44;;;;;;;6.40;4.68;;;;;;;24.72;83.16;99227.34;6290161;28;20048;-71
2022/08/16 07:48:45;;;;;;;6.75;5.07;;;;;;;24.99;81.76;99226.50;6281407;28;20517;-71
2022/08/16 07:51:47;;;;;;;6.07;4.68;;;;;;;25.22;78.89;99234.09;6297105;28;20448;-71
2022/08/16 07:54:48;;;;;;;8.75;5.03;;;;;;;25.25;76.81;99236.38;6297081;28;20045;-73
2022/08/16 07:57:49;;;;;;;6.57;4.03;;;;;;;25.31;76.99;99235.53;6312803;28;20480;-72
2022/08/16 08:00:50;;;;;;;;;;;;;;;25.19;74.30;99239.84;6322607;28;20040;-73
2022/08/16 08:03:51;;;;;;;6.63;4.65;;;;;;;25.02;74.60;99242.94;6304771;28;20481;-72
2022/08/16 08:06:53;;;;;;;6.47;4.15;;;;;;;25.23;75.20;99244.56;6322049;28;20051;-73
2022/08/16 08:09:56;;;;;;;8.13;5.00;;;;;;;25.55;74.03;99239.34;6272060;28;20051;-72
2022/08/16 08:12:57;;;;;;;10.43;5.10;;;;;;;25.59;72.01;99232.53;6321750;28;20412;-72
2022/08/16 08:16:03;;;;;;;8.63;4.80;;;;;;;25.56;69.96;99234.84;6304434;28;20044;-72
2022/08/16 08:19:06;;;;;;;8.52;4.93;;;;;;;25.59;71.51;99232.53;6302926;28;20067;-73
2022/08/16 08:22:08;;;;;;;7.70;4.65;;;;;;;25.78;69.82;99236.19;6320554;28;20040;-72
2022/08/16 08:25:09;;;;;;;7.38;4.50;;;;;;;26.02;69.53;99239.97;6303782;28;20036;-72
2022/08/16 08:28:10;;;;;;;11.90;5.05;;;;;;;26.18;68.63;99249.38;6303347;28;20078;-73
2022/08/16 08:31:15;;;;;;;8.65;4.75;;;;;;;26.34;69.53;99248.03;6287343;28;20051;-72
2022/08/16 08:34:17;;;;;;;9.17;4.73;;;;;;;26.46;69.81;99258.84;6304710;28;20051;-72
2022/08/16 08:37:18;;;;;;;7.82;4.82;;;;;;;26.37;67.44;99244.09;6320994;28;20330;-72
2022/08/16 08:40:28;;;;;;;6.03;4.50;;;;;;;26.92;66.66;99253.16;6289973;28;20090;-72
2022/08/16 08:43:30;;;;;;;10.23;5.15;;;;;;;26.78;66.10;99246.28;6320721;28;20500;-72
2022/08/16 08:46:31;;;;;;;11.73;5.30;;;;;;;26.62;64.65;99250.31;6322179;28;20036;-72
2022/08/16 08:49:34;;;;;;;9.05;5.07;;;;;;;26.42;65.91;99241.59;6271175;28;20059;-72
2022/08/16 08:52:36;;;;;;;8.68;4.30;;;;;;;26.51;65.41;99243.78;6322201;28;20050;-72
2022/08/16 08:55:36;;;;;;;6.93;4.93;;;;;;;26.68;63.53;99245.97;6287330;28;20111;-72
2022/08/16 08:58:38;;;;;;;8.73;4.63;;;;;;;26.93;62.79;99251.28;6321856;28;20068;-72
2022/08/16 09:01:40;;;;;;;6.80;4.40;;;;;;;26.67;61.54;99250.50;6320543;28;20043;-71
2022/08/16 09:04:43;;;;;;;5.82;4.82;;;;;;;26.71;62.96;99257.06;6320393;28;20089;-71
2022/08/16 09:07:47;;;;;;;9.27;4.88;;;;;;;26.79;62.74;99257.81;6320392;28;20051;-71
2022/08/16 09:10:51;;;;;;;8.65;4.53;;;;;;;27.14;60.26;99255.44;6321927;28;20032;-72
2022/08/16 09:13:51;;;;;;;10.45;4.70;;;;;;;27.48;60.23;99242.53;6320185;28;20075;-72
2022/08/16 09:16:53;;;;;;;13.15;5.07;;;;;;;27.67;60.20;99249.50;6321480;28;20040;-72
2022/08/16 09:19:54;;;;;;;8.45;4.75;;;;;;;28.12;59.06;99241.13;6303379;28;20040;-72
2022/08/16 09:22:56;;;;;;;;;;;;;;;28.38;57.16;99243.66;6320389;28;20052;-72
2022/08/16 09:25:57;;;;;;;14.25;4.57;;;;;;;28.68;54.93;99238.25;6319944;28;19927;-72
2022/08/16 09:29:00;;;;;;;15.32;5.47;;;;;;;28.39;55.83;99240.72;6303169;28;20052;-71
2022/08/16 09:32:01;;;;;;;7.57;5.13;;;;;;;28.74;57.19;99242.69;6320069;28;20035;-72
2022/08/16 09:35:04;;;;;;;16.25;4.78;;;;;;;28.53;55.88;99241.38;6319546;28;20444;-72
2022/08/16 09:38:08;;;;;;;11.38;4.80;;;;;;;28.31;57.83;99239.22;6319043;28;20060;-71
2022/08/16 09:41:24;;;;;;;11.30;4.93;;;;;;;28.57;58.71;99244.44;6290603;28;20052;-71
2022/08/16 09:44:26;;;;;;;11.15;4.93;;;;;;;28.89;54.98;99245.75;6286403;28;20044;-71
2022/08/16 09:47:27;;;;;;;8.90;4.63;;;;;;;29.24;54.68;99244.94;6319567;28;20044;-71
2022/08/16 09:50:35;;;;;;;8.68;4.65;;;;;;;29.59;53.90;99248.59;6303572;28;20050;-71
2022/08/16 09:53:36;;;;;;;8.38;4.63;;;;;;;30.14;50.97;99245.41;6302836;28;20072;-72
2022/08/16 09:56:38;;;;;;;;;;;;;;;29.73;49.68;99253.53;6302948;28;20066;-72
2022/08/16 09:59:39;;;;;;;10.20;4.22;;;;;;;30.06;49.57;99245.78;6319272;28;19939;-72
2022/08/16 10:02:41;;;;;;;13.02;4.53;;;;;;;30.53;48.34;99245.56;6319286;28;20040;-72
2022/08/16 10:05:43;;;;;;;8.55;4.35;;;;;;;30.64;46.97;99250.06;6319240;28;20128;-73
2022/08/16 10:08:44;;;;;;;10.23;4.72;;;;;;;30.56;46.95;99246.94;6320556;28;20040;-72
2022/08/16 10:15:07;;;;;;;7.82;4.13;;;;;;;30.84;46.40;99243.34;6304709;28;20066;-73
2022/08/16 10:18:11;;;;;;;9.55;4.40;;;;;;;30.84;46.78;99240.66;6320311;28;20048;-73
2022/08/16 10:21:15;;;;;;;9.63;4.32;;;;;;;30.96;46.39;99235.22;6318921;28;20048;-72
2022/08/16 10:24:15;;;;;;;6.78;4.30;;;;;;;30.88;44.20;99237.25;6318686;28;20511;-73
2022/08/16 10:27:16;;;;;;;8.02;4.60;;;;;;;30.98;45.12;99230.41;6302224;28;20036;-73
2022/08/16 10:30:21;;;;;;;5.50;4.00;;;;;;;31.21;45.61;99229.38;6319051;28;20059;-72
2022/08/16 10:33:26;;;;;;;7.40;4.50;;;;;;;31.05;45.56;99228.34;6302456;28;20047;-73
2022/08/16 10:36:28;;;;;;;13.85;4.78;;;;;;;31.20;45.12;99230.44;6318865;28;20479;-73
2022/08/16 10:39:29;;;;;;;10.98;4.32;;;;;;;31.28;45.81;99213.84;6318584;28;20363;-72
2022/08/16 10:42:32;;;;;;;8.68;4.75;;;;;;;31.56;44.47;99222.84;6318847;28;20040;-72
2022/08/16 10:45:34;;;;;;;5.43;4.60;;;;;;;31.50;45.19;99220.09;6319876;28;20082;-71
2022/08/16 10:48:36;;;;;;;6.28;4.38;;;;;;;31.58;45.19;99228.78;6302035;28;20051;-72
2022/08/16 10:51:38;;;;;;;9.38;4.68;;;;;;;31.66;42.84;99217.56;6321196;28;20036;-72
2022/08/16 10:54:39;;;;;;;8.55;4.43;;;;;;;31.82;43.46;99224.75;6323656;28;20055;-72
2022/08/16 10:57:40;;;;;;;10.82;4.45;;;;;;;31.66;43.00;99229.16;6324760;28;20413;-73
2022/08/16 11:00:46;;;;;;;9.65;4.70;;;;;;;31.98;42.77;99214.09;6307292;28;20112;-73
2022/08/16 11:03:47;;;;;;;7.00;4.68;;;;;;;31.92;41.65;99213.25;6323415;28;20071;-71
2022/08/16 11:06:48;;;;;;;6.32;4.60;;;;;;;32.33;41.29;99206.38;6323283;28;20040;-71
2022/08/16 11:09:49;;;;;;;13.75;4.43;;;;;;;32.36;41.33;99202.34;6323250;28;20514;-71
2022/08/16 11:12:51;;;;;;;5.50;4.30;;;;;;;32.46;41.26;99207.84;6323412;28;20407;-71
2022/08/16 11:15:55;;;;;;;;;;;;;;;32.24;38.36;99210.59;6289979;28;20283;-73
2022/08/16 11:18:56;;;;;;;9.13;4.80;;;;;;;32.29;39.85;99189.06;6323552;28;20014;-72
2022/08/16 11:21:56;;;;;;;;;;;;;;;32.54;39.26;99193.09;6323308;28;20127;-73
2022/08/16 11:24:57;;;;;;;6.65;4.32;;;;;;;32.63;39.78;99188.81;6323770;28;19926;-72
2022/08/16 11:27:59;;;;;;;;;;;;;;;32.62;37.10;99189.09;6306588;28;20083;-73
2022/08/16 11:31:01;;;;;;;9.00;4.28;;;;;;;33.02;41.25;99182.28;6306045;28;19926;-71
2022/08/16 11:34:05;;;;;;;13.48;3.95;;;;;;;33.12;37.67;99185.09;6324412;28;20082;-72
2022/08/16 11:37:06;;;;;;;7.88;4.30;;;;;;;33.33;36.37;99180.56;6322429;28;20058;-72
2022/08/16 11:40:09;;;;;;;9.68;4.03;;;;;;;33.33;36.12;99172.47;6322518;28;20044;-73
2022/08/16 11:43:11;;;;;;;11.23;4.68;;;;;;;33.13;37.53;99167.78;6305710;28;20075;-73
2022/08/16 11:46:16;;;;;;;6.53;4.55;;;;;;;33.17;37.73;99160.78;6324003;28;20063;-73
2022/08/16 11:49:17;;;;;;;8.52;4.10;;;;;;;33.00;35.62;99169.03;6323091;28;20579;-72
2022/08/16 11:52:20;;;;;;;6.32;4.20;;;;;;;32.84;37.10;99159.22;6322268;28;20044;-72
2022/08/16 11:55:21;;;;;;;7.13;4.30;;;;;;;33.20;35.97;99145.94;6307674;28;20067;-72
2022/08/16 11:58:24;;;;;;;8.63;4.43;;;;;;;32.94;36.90;99151.19;6288732;28;20052;-71
2022/08/16 12:01:26;;;;;;;5.45;3.95;;;;;;;33.25;36.50;99148.66;6321415;28;20040;-72
2022/08/16 12:04:28;;;;;;;8.40;4.07;;;;;;;33.29;36.07;99152.44;6322785;28;20052;-72
2022/08/16 12:07:31;;;;;;;6.75;4.18;;;;;;;33.28;35.79;99157.03;6305958;28;20056;-72
2022/08/16 12:10:39;;;;;;;6.53;3.85;;;;;;;33.40;35.15;99153.28;6324088;28;20040;-73
2022/08/16 12:13:41;;;;;;;10.02;4.03;;;;;;;33.45;36.06;99139.78;6322988;28;20072;-72
2022/08/16 12:16:42;;;;;;;6.82;4.00;;;;;;;33.57;34.70;99140.38;6305741;28;20064;-73
2022/08/16 12:19:44;;;;;;;5.80;3.78;;;;;;;33.39;33.98;99138.97;6322704;28;20048;-73
2022/08/16 12:22:45;;;;;;;9.93;3.72;;;;;;;33.65;35.61;99136.38;6302671;28;20088;-72
2022/08/16 12:25:48;;;;;;;7.45;3.60;;;;;;;33.38;34.22;99131.94;6323554;28;20484;-72
2022/08/16 12:28:51;;;;;;;6.00;4.30;;;;;;;33.21;33.38;99134.84;6322349;28;20040;-71
2022/08/16 12:31:53;;;;;;;5.22;3.95;;;;;;;32.64;35.14;99131.03;6323475;28;20096;-73
2022/08/16 12:34:53;;;;;;;5.93;3.95;;;;;;;33.15;35.13;99130.50;6321396;28;20094;-72
2022/08/16 12:37:55;;;;;;;;;;;;;;;33.12;35.65;99129.13;6321148;28;20533;-72
2022/08/16 12:40:57;;;;;;;5.90;4.22;;;;;;;33.30;34.54;99122.44;6303852;28;19946;-73
2022/08/16 12:43:58;;;;;;;;;;;;;;;33.30;34.88;99114.34;6322691;28;20119;-74
2022/08/16 12:50:23;;;;;;;5.95;4.03;;;;;;;33.58;34.27;99101.41;6322084;28;19927;-72
2022/08/16 12:53:24;;;;;;;6.32;3.83;;;;;;;33.14;34.24;99106.47;6320954;28;20427;-72
2022/08/16 12:56:28;;;;;;;5.93;3.80;;;;;;;33.34;34.48;99098.41;6320757;28;20062;-72
2022/08/16 12:59:29;;;;;;;8.68;4.03;;;;;;;33.30;35.30;99100.81;6322051;28;20415;-73
2022/08/16 13:02:30;;;;;;;7.30;4.25;;;;;;;33.06;35.55;99103.16;6322001;28;20392;-72
2022/08/16 13:05:39;;;;;;;;;;;;;;;33.23;36.47;99099.44;6321078;28;20044;-74
2022/08/16 13:08:43;;;;;;;4.88;3.83;;;;;;;33.23;34.71;99099.44;6321668;28;19923;-73
2022/08/16 13:11:58;;;;;;;8.60;4.28;;;;;;;33.22;35.28;99101.34;6316958;28;20070;-74
2022/08/16 13:15:02;;;;;;;5.00;3.92;;;;;;;33.26;34.81;99091.63;6296385;28;20051;-73
2022/08/16 13:18:04;;;;;;;6.43;4.57;;;;;;;33.24;34.64;99098.38;6279144;28;20066;-73
2022/08/16 13:21:08;;;;;;;7.97;4.63;;;;;;;33.12;34.60;99085.91;6296707;28;20045;-72
2022/08/16 13:24:08;;;;;;;;;;;;;;;33.24;35.78;99085.69;6296019;28;20527;-74
2022/08/16 13:27:12;;;;;;;9.20;3.75;;;;;;;33.15;34.71;99092.66;6278714;28;19920;-74
2022/08/16 13:30:18;;;;;;;4.35;3.80;;;;;;;33.12;35.33;99090.50;6279536;28;20063;-72
2022/08/16 13:33:25;;;;;;;9.48;3.85;;;;;;;32.88;35.17;99085.50;6279209;28;20052;-72
2022/08/16 13:36:26;;;;;;;5.15;3.53;;;;;;;32.95;35.00;99085.28;6296792;28;20045;-73
2022/08/16 13:39:27;;;;;;;;;;;;;;;33.05;35.02;99084.50;6297047;28;20047;-72
2022/08/16 13:42:28;;;;;;;6.80;3.70;;;;;;;32.96;34.68;99084.19;6296625;28;20007;-73
2022/08/16 13:45:29;;;;;;;;;;;;;;;32.90;34.46;99087.94;6297084;28;20044;-73
2022/08/16 13:48:30;;;;;;;9.38;3.80;;;;;;;32.75;35.43;99093.28;6295505;28;20015;-74
2022/08/16 13:51:31;;;;;;;5.10;3.83;;;;;;;32.63;34.86;99085.41;6294958;28;20052;-74
2022/08/16 13:54:33;;;;;;;5.40;3.83;;;;;;;32.43;34.14;99083.34;6278180;28;20053;-73
2022/08/16 13:57:33;;;;;;;7.25;3.50;;;;;;;32.43;33.27;99075.25;6277646;28;20086;-73
2022/08/16 14:00:39;;;;;;;6.60;3.75;;;;;;;32.68;33.25;99074.63;6296574;28;20386;-73
2022/08/16 14:03:41;;;;;;;7.68;3.80;;;;;;;32.72;33.65;99071.13;6278527;28;20057;-73
2022/08/16 14:06:41;;;;;;;4.50;3.30;;;;;;;32.73;31.38;99074.66;6278368;28;20163;-73
2022/08/16 14:09:42;;;;;;;;;;;;;;;32.76;31.10;99079.53;6278884;28;20469;-73
2022/08/16 14:12:43;;;;;;;4.88;3.38;;;;;;;32.79;31.74;99079.00;6294910;28;19927;-73
2022/08/16 14:15:43;;;;;;;;;;;;;;;32.71;30.91;99077.59;6299416;28;20473;-74
2022/08/16 14:18:44;;;;;;;4.67;3.00;;;;;;;32.38;31.25;99076.03;6320222;28;20368;-73
2022/08/16 14:21:46;;;;;;;;;;;;;;;32.31;30.68;99061.97;6286177;28;20074;-74
2022/08/16 14:24:50;;;;;;;5.07;2.97;;;;;;;31.95;32.00;99068.97;6321258;28;19920;-74
2022/08/16 14:27:51;;;;;;;5.15;3.00;;;;;;;32.13;31.48;99057.81;6325398;28;20043;-74